Duluth, Minnesota
Current Conditions -  °F | °C
As of 6:55 AM on Sunday 21 Dec 2014 (Local Time) from KDLH Reporting Station
Freezing Drizzle Freezing Drizzle  
Wind Chill: 23°   Ceiling: 600
Heat Index: 30°   Visibility: 6mi
Dew Point: 27°   Wind: 7mph
Humidity: 88%   Direction: 150°SSE
Pressure: 29.9"   Gusts: NA
Location:  46.79°N, 92.09°W
Report Text: KDLH 211255Z 15006KT 6SM -FZDZ BR OVC006 M01/M03 A2990 RMK AO2 FZDZB15 SLP146 PCPN VRY LGT P0000 I1000 T10111028
Loading
Personal Weather Stations






























Interactive Weather Map New forecast layout! Learn more

10-Day Weather Forecast

Advertisements
Track Severe Weather on mobile